Archiv-/Tagesdaten

--Timestamp---	Temp	Chill	HIndex	Humid	Dewpt	 Wind 	HiWind	WindDir	Rain 	Barom	Solar	 ET  	 UV 
--------------	----	-----	------	-----	-----	------	------	-------	-----	-----	-----	-----	----
20260430 00:00	9.0	7.5	9.0	49	-1.1	10	21	68	0.0	1023.5	0	0.076	0.0
20260430 00:05	8.9	7.4	8.9	50	-0.9	10	24	68	0.0	1023.5	0	0.000	0.0
20260430 00:10	8.8	7.6	8.8	50	-1.0	8	18	68	0.0	1023.6	0	0.000	0.0
20260430 00:15	8.8	7.2	8.8	51	-0.8	10	18	68	0.0	1023.6	0	0.000	0.0
20260430 00:20	8.6	7.4	8.6	51	-1.0	8	18	68	0.0	1023.6	0	0.000	0.0
20260430 00:25	8.6	7.0	8.6	52	-0.7	10	21	68	0.0	1023.8	0	0.000	0.0
20260430 00:30	8.5	7.2	8.5	52	-0.8	8	21	68	0.0	1023.9	0	0.000	0.0
20260430 00:35	8.4	6.9	8.4	52	-0.8	10	21	68	0.0	1024.0	0	0.000	0.0
20260430 00:40	8.3	7.4	8.3	52	-1.0	6	18	68	0.0	1024.0	0	0.000	0.0
20260430 00:45	8.3	7.0	8.3	52	-1.0	8	23	68	0.0	1024.1	0	0.000	0.0
20260430 00:50	8.2	7.3	8.2	52	-1.1	6	21	68	0.0	1024.1	0	0.000	0.0
20260430 00:55	8.1	6.5	8.1	51	-1.4	10	23	68	0.0	1024.2	0	0.000	0.0
20260430 01:00	8.1	6.7	8.1	51	-1.5	8	21	68	0.0	1024.2	0	0.051	0.0
20260430 01:05	8.0	6.7	8.0	51	-1.5	8	21	68	0.0	1024.0	0	0.000	0.0
20260430 01:10	7.8	6.5	7.8	51	-1.7	8	16	90	0.0	1024.1	0	0.000	0.0
20260430 01:15	7.8	6.1	7.8	51	-1.7	10	21	68	0.0	1024.2	0	0.000	0.0
20260430 01:20	7.7	6.3	7.7	50	-2.0	8	18	68	0.0	1024.3	0	0.000	0.0
20260430 01:25	7.6	6.2	7.6	50	-2.1	8	18	68	0.0	1024.2	0	0.000	0.0
20260430 01:30	7.5	6.5	7.5	50	-2.2	6	19	68	0.0	1024.2	0	0.000	0.0
20260430 01:35	7.4	5.7	7.4	50	-2.3	10	19	68	0.0	1024.3	0	0.000	0.0
20260430 01:40	7.4	5.6	7.4	49	-2.6	10	24	68	0.0	1024.2	0	0.000	0.0
20260430 01:45	7.3	5.5	7.3	49	-2.7	10	19	90	0.0	1024.4	0	0.000	0.0
20260430 01:50	7.3	5.8	7.3	49	-2.7	8	24	68	0.0	1024.4	0	0.000	0.0
20260430 01:55	7.2	6.1	7.2	49	-2.8	6	18	90	0.0	1024.4	0	0.000	0.0
20260430 02:00	7.0	5.9	7.0	49	-3.0	6	19	68	0.0	1024.3	0	0.051	0.0
20260430 02:05	6.9	5.4	6.9	49	-3.1	8	21	68	0.0	1024.4	0	0.000	0.0
20260430 02:10	6.8	5.3	6.8	49	-3.1	8	23	68	0.0	1024.5	0	0.000	0.0
20260430 02:15	6.8	5.7	6.8	49	-3.2	6	21	90	0.0	1024.5	0	0.000	0.0
20260430 02:20	6.7	5.5	6.7	49	-3.3	6	19	90	0.0	1024.5	0	0.000	0.0
20260430 02:25	6.6	5.0	6.6	49	-3.3	8	19	90	0.0	1024.5	0	0.000	0.0
20260430 02:30	6.6	5.0	6.6	49	-3.4	8	24	90	0.0	1024.4	0	0.000	0.0
20260430 02:35	6.4	4.8	6.4	49	-3.5	8	19	68	0.0	1024.4	0	0.000	0.0
20260430 02:40	6.3	4.3	6.3	48	-3.9	10	23	90	0.0	1024.4	0	0.000	0.0
20260430 02:45	6.3	4.0	6.3	47	-4.2	11	23	90	0.0	1024.6	0	0.000	0.0
20260430 02:50	6.3	4.3	6.3	47	-4.2	10	18	90	0.0	1024.5	0	0.000	0.0
20260430 02:55	6.2	3.9	6.2	45	-4.8	11	23	90	0.0	1024.6	0	0.000	0.0
20260430 03:00	6.2	3.8	6.2	44	-5.2	11	26	90	0.0	1024.7	0	0.051	0.0
20260430 03:05	6.1	4.1	6.1	44	-5.2	10	27	90	0.0	1024.6	0	0.000	0.0
20260430 03:10	6.1	3.7	6.1	43	-5.6	11	26	90	0.0	1024.5	0	0.000	0.0
20260430 03:15	6.0	3.9	6.0	43	-5.6	10	21	90	0.0	1024.6	0	0.000	0.0
20260430 03:20	5.9	3.8	5.9	43	-5.7	10	21	90	0.0	1024.6	0	0.000	0.0
20260430 03:25	5.8	3.1	5.8	43	-5.8	13	27	68	0.0	1024.6	0	0.000	0.0
20260430 03:30	5.8	3.4	5.8	43	-5.8	11	27	68	0.0	1024.6	0	0.000	0.0
20260430 03:35	5.7	3.2	5.7	42	-6.2	11	27	90	0.0	1024.5	0	0.000	0.0
20260430 03:40	5.6	3.1	5.6	43	-6.0	11	21	68	0.0	1024.7	0	0.000	0.0
20260430 03:45	5.4	3.3	5.4	43	-6.1	10	21	90	0.0	1024.7	0	0.000	0.0
20260430 03:50	5.3	2.8	5.3	43	-6.2	11	23	90	0.0	1024.8	0	0.000	0.0
20260430 03:55	5.3	2.8	5.3	44	-5.9	11	24	90	0.0	1024.8	0	0.000	0.0
20260430 04:00	5.2	3.0	5.2	44	-6.0	10	26	90	0.0	1025.0	0	0.076	0.0
20260430 04:05	5.1	2.5	5.1	44	-6.1	11	23	90	0.0	1025.0	0	0.000	0.0
20260430 04:10	5.0	3.1	5.0	44	-6.2	8	18	90	0.0	1025.0	0	0.000	0.0
20260430 04:15	4.9	2.6	4.9	45	-6.0	10	19	90	0.0	1025.1	0	0.000	0.0
20260430 04:20	4.8	2.6	4.8	45	-6.1	10	26	90	0.0	1025.1	0	0.000	0.0
20260430 04:25	4.7	2.8	4.7	45	-6.2	8	19	90	0.0	1025.1	0	0.000	0.0
20260430 04:30	4.7	2.4	4.7	45	-6.2	10	21	90	0.0	1025.2	0	0.000	0.0
20260430 04:35	4.6	3.1	4.6	46	-6.1	6	16	90	0.0	1025.2	0	0.000	0.0
20260430 04:40	4.5	2.2	4.5	46	-6.1	10	21	90	0.0	1025.2	0	0.000	0.0
20260430 04:45	4.5	3.0	4.5	46	-6.1	6	14	112	0.0	1025.1	0	0.000	0.0
20260430 04:50	4.3	2.8	4.3	46	-6.3	6	19	90	0.0	1025.2	0	0.000	0.0
20260430 04:55	4.3	2.8	4.3	46	-6.3	6	19	90	0.0	1025.2	0	0.000	0.0
20260430 05:00	4.2	2.2	4.2	46	-6.4	8	18	90	0.0	1025.2	0	0.051	0.0
20260430 05:05	4.2	2.2	4.2	47	-6.1	8	18	90	0.0	1025.2	0	0.000	0.0
20260430 05:10	4.1	2.6	4.1	47	-6.2	6	13	90	0.0	1025.3	0	0.000	0.0
20260430 05:15	4.1	2.0	4.1	47	-6.2	8	19	90	0.0	1025.4	0	0.000	0.0
20260430 05:20	3.9	2.4	3.9	47	-6.3	6	14	90	0.0	1025.4	0	0.000	0.0
20260430 05:25	3.9	3.9	3.9	48	-6.1	5	13	90	0.0	1025.4	0	0.000	0.0
20260430 05:30	3.8	2.2	3.8	48	-6.2	6	14	90	0.0	1025.4	0	0.000	0.0
20260430 05:35	3.7	2.1	3.7	48	-6.3	6	16	90	0.0	1025.4	0	0.000	0.0
20260430 05:40	3.7	2.1	3.7	48	-6.3	6	19	68	0.0	1025.4	0	0.000	0.0
20260430 05:45	3.6	2.0	3.6	48	-6.4	6	14	68	0.0	1025.4	0	0.000	0.0
20260430 05:50	3.6	3.6	3.6	48	-6.4	5	11	68	0.0	1025.6	0	0.000	0.0
20260430 05:55	3.5	3.5	3.5	49	-6.2	3	10	68	0.0	1025.5	0	0.000	0.0
20260430 06:00	3.4	3.4	3.4	49	-6.3	5	13	68	0.0	1025.6	0	0.025	0.0
20260430 06:05	3.4	3.4	3.4	49	-6.3	5	13	68	0.0	1025.7	3	0.000	0.0
20260430 06:10	3.3	3.3	3.3	49	-6.4	3	13	68	0.0	1025.7	6	0.000	0.0
20260430 06:15	3.3	1.7	3.3	49	-6.4	6	18	68	0.0	1025.7	8	0.000	0.0
20260430 06:20	3.4	1.2	3.4	49	-6.3	8	21	68	0.0	1025.7	10	0.000	0.0
20260430 06:25	3.4	1.2	3.4	49	-6.3	8	23	68	0.0	1025.7	11	0.000	0.0
20260430 06:30	3.4	1.2	3.4	49	-6.3	8	18	90	0.0	1025.8	12	0.000	0.0
20260430 06:35	3.4	1.3	3.4	49	-6.3	8	23	68	0.0	1025.7	14	0.000	0.0
20260430 06:40	3.4	1.3	3.4	50	-6.0	8	23	68	0.0	1025.8	16	0.000	0.0
20260430 06:45	3.5	1.9	3.5	50	-5.9	6	19	68	0.0	1025.7	18	0.000	0.0
20260430 06:50	3.6	1.4	3.6	50	-5.9	8	19	90	0.0	1025.9	19	0.000	0.0
20260430 06:55	3.6	2.0	3.6	50	-5.8	6	23	90	0.0	1025.8	21	0.000	0.0
20260430 07:00	3.7	3.7	3.7	50	-5.8	5	14	112	0.0	1025.8	22	0.025	0.0
20260430 07:05	3.7	1.6	3.7	50	-5.7	8	26	90	0.0	1026.2	23	0.000	0.0
20260430 07:10	3.8	1.4	3.8	49	-5.9	10	26	90	0.0	1026.2	25	0.000	0.0
20260430 07:15	3.9	2.3	3.9	50	-5.6	6	16	90	0.0	1026.3	25	0.000	0.0
20260430 07:20	4.0	1.6	4.0	49	-5.7	10	21	90	0.0	1026.3	26	0.000	0.0
20260430 07:25	4.1	2.1	4.1	49	-5.6	8	23	90	0.0	1026.3	26	0.000	0.0
20260430 07:30	4.3	1.9	4.3	50	-5.2	10	19	90	0.0	1026.3	65	0.000	0.0
20260430 07:35	4.4	2.0	4.4	49	-5.4	10	23	90	0.0	1026.3	189	0.000	0.0
20260430 07:40	4.5	1.8	4.5	49	-5.3	11	24	90	0.0	1026.2	200	0.000	0.0
20260430 07:45	4.8	2.1	4.8	48	-5.3	11	26	90	0.0	1026.2	213	0.000	0.0
20260430 07:50	5.3	3.1	5.3	47	-5.1	10	23	68	0.0	1026.2	227	0.000	0.0
20260430 07:55	5.6	3.1	5.6	46	-5.1	11	27	68	0.0	1026.2	241	0.000	0.0
20260430 08:00	5.8	3.1	5.8	46	-4.9	13	26	112	0.0	1026.2	253	0.102	0.0
20260430 08:05	5.9	3.0	5.9	45	-5.1	14	26	90	0.0	1026.6	266	0.000	0.0
20260430 08:10	6.1	3.5	6.1	44	-5.2	13	24	90	0.0	1026.7	280	0.000	0.0
20260430 08:15	6.3	4.0	6.3	45	-4.7	11	21	90	0.0	1026.7	293	0.000	0.2
20260430 08:20	6.5	3.9	6.5	44	-4.9	13	24	90	0.0	1026.6	305	0.000	0.5
20260430 08:25	6.7	4.2	6.7	44	-4.7	13	24	90	0.0	1026.6	318	0.000	0.5
20260430 08:30	6.9	4.4	6.9	43	-4.8	13	31	90	0.0	1026.5	332	0.000	0.6
20260430 08:35	6.9	4.5	6.9	43	-4.8	13	27	90	0.0	1026.5	346	0.000	0.6
20260430 08:40	7.1	4.6	7.1	42	-5.0	13	23	90	0.0	1026.5	358	0.000	0.6
20260430 08:45	7.2	4.5	7.2	42	-4.9	14	24	90	0.0	1026.6	372	0.000	0.7
20260430 08:50	7.4	4.8	7.4	41	-5.0	14	29	90	0.0	1026.7	384	0.000	0.7
20260430 08:55	7.4	4.6	7.4	40	-5.3	16	27	90	0.0	1026.7	397	0.000	0.8
20260430 09:00	7.6	5.2	7.6	40	-5.2	13	31	90	0.0	1026.4	408	0.203	0.8
20260430 09:05	7.8	5.1	7.8	40	-4.9	16	29	90	0.0	1026.8	421	0.000	0.9
20260430 09:10	8.0	5.3	8.0	39	-5.1	16	37	90	0.0	1026.8	433	0.000	0.9
20260430 09:15	8.0	5.8	8.0	40	-4.8	13	26	90	0.0	1026.9	445	0.000	1.0
20260430 09:20	8.2	5.7	8.2	39	-5.0	14	26	90	0.0	1026.7	458	0.000	1.0
20260430 09:25	8.3	6.7	8.3	41	-4.1	10	19	90	0.0	1026.6	469	0.000	1.1
20260430 09:30	8.7	7.1	8.7	40	-4.2	10	23	68	0.0	1026.7	480	0.000	1.1
20260430 09:35	8.9	6.9	8.9	39	-4.3	13	26	90	0.0	1026.6	492	0.000	1.2
20260430 09:40	8.8	6.6	8.8	39	-4.4	14	26	90	0.0	1026.8	503	0.000	1.2
20260430 09:45	8.8	6.5	8.8	39	-4.4	14	27	90	0.0	1026.8	514	0.000	1.3
20260430 09:50	8.7	6.2	8.7	40	-4.1	16	29	90	0.0	1026.8	181	0.000	1.0
20260430 09:55	8.7	6.6	8.7	40	-4.2	13	24	90	0.0	1026.8	40	0.000	0.0
20260430 10:00	8.7	6.6	8.7	41	-3.8	13	23	90	0.0	1026.8	40	0.254	0.0
20260430 10:05	8.9	6.6	8.9	41	-3.6	14	26	112	0.0	1026.9	39	0.000	0.0
20260430 10:10	9.0	7.8	9.0	41	-3.5	8	19	90	0.0	1026.8	40	0.000	0.0
20260430 10:15	9.3	7.6	9.3	41	-3.3	11	23	90	0.0	1026.7	40	0.000	0.0
20260430 10:20	9.2	7.4	9.2	40	-3.7	11	24	68	0.0	1026.7	40	0.000	0.0
20260430 10:25	9.4	7.8	9.4	41	-3.1	11	23	90	0.0	1026.7	40	0.000	0.0
20260430 10:30	9.4	7.3	9.4	40	-3.5	14	27	90	0.0	1026.6	40	0.000	0.0
20260430 10:35	9.6	7.4	9.6	41	-3.0	14	24	90	0.0	1026.7	40	0.000	0.0
20260430 10:40	9.4	7.5	9.4	40	-3.5	13	23	68	0.0	1026.8	40	0.000	0.0
20260430 10:45	9.7	8.1	9.7	41	-2.9	11	19	90	0.0	1026.7	40	0.000	0.0
20260430 10:50	9.9	7.9	9.9	39	-3.4	14	31	68	0.0	1026.9	40	0.000	0.0
20260430 10:55	9.8	7.9	9.8	39	-3.5	13	24	68	0.0	1026.8	40	0.000	0.0
20260430 11:00	10.1	10.1	10.1	40	-2.9	11	27	68	0.0	1026.8	40	0.102	0.0
20260430 11:05	10.2	10.2	10.2	40	-2.8	10	18	45	0.0	1026.8	42	0.000	0.0
20260430 11:10	10.3	10.3	10.3	40	-2.7	10	24	90	0.0	1026.8	42	0.000	0.0
20260430 11:15	10.7	10.7	10.7	38	-3.1	14	26	90	0.0	1026.8	42	0.000	0.0
20260430 11:20	10.7	10.7	10.7	38	-3.0	11	23	68	0.0	1026.8	42	0.000	0.0
20260430 11:25	10.9	10.9	10.9	36	-3.5	14	27	90	0.0	1026.7	42	0.000	0.0
20260430 11:30	11.1	11.1	11.1	36	-3.4	13	21	90	0.0	1026.7	42	0.000	0.0
20260430 11:35	11.4	11.4	11.4	35	-3.5	13	27	90	0.0	1026.7	42	0.000	0.0
20260430 11:40	11.6	11.6	11.6	35	-3.4	8	19	68	0.0	1026.6	43	0.000	0.0
20260430 11:45	11.6	11.6	11.6	35	-3.3	11	23	90	0.0	1026.6	44	0.000	0.0
20260430 11:50	11.6	11.6	11.6	34	-3.8	14	26	68	0.0	1026.6	45	0.000	0.0
20260430 11:55	11.8	11.8	11.8	33	-4.0	14	26	112	0.0	1026.5	51	0.000	0.2
20260430 12:00	12.1	12.1	12.1	35	-2.9	13	26	90	0.0	1026.3	449	0.127	1.2
20260430 12:05	12.1	12.1	12.1	34	-3.3	11	24	68	0.0	1026.4	737	0.000	1.9
20260430 12:10	12.0	12.0	12.0	31	-4.6	13	31	45	0.0	1026.5	746	0.000	2.9
20260430 12:15	11.6	11.6	11.6	31	-5.0	16	31	45	0.0	1026.5	748	0.000	2.9
20260430 12:20	12.2	12.2	12.2	32	-4.0	14	29	68	0.0	1026.3	751	0.000	2.9
20260430 12:25	12.4	12.4	12.4	31	-4.2	14	29	68	0.0	1026.3	757	0.000	3.0
20260430 12:30	12.4	12.4	12.4	31	-4.2	13	24	90	0.0	1026.3	759	0.000	3.0
20260430 12:35	12.7	12.7	12.7	29	-4.9	13	29	90	0.0	1026.1	763	0.000	3.0
20260430 12:40	12.8	12.8	12.8	29	-4.8	16	26	68	0.0	1026.2	766	0.000	3.0
20260430 12:45	13.1	13.1	13.1	30	-4.1	11	21	68	0.0	1026.2	769	0.000	3.1
20260430 12:50	13.4	13.4	13.4	26	-5.7	13	23	90	0.0	1026.1	773	0.000	3.1
20260430 12:55	13.7	13.7	13.7	29	-4.0	10	23	90	0.0	1025.8	772	0.000	3.1
20260430 13:00	13.6	13.6	13.6	29	-4.1	11	24	90	0.0	1025.9	772	0.483	3.1
20260430 13:05	13.6	13.6	13.6	29	-4.1	13	29	68	0.0	1026.1	773	0.000	3.1
20260430 13:10	13.7	13.7	13.7	28	-4.5	13	24	90	0.0	1025.8	775	0.000	3.1
20260430 13:15	13.9	13.9	13.9	28	-4.3	13	23	90	0.0	1025.8	775	0.000	3.1
20260430 13:20	13.6	13.6	13.6	28	-4.6	14	23	68	0.0	1025.8	774	0.000	3.1
20260430 13:25	13.7	13.7	13.7	27	-5.0	13	24	68	0.0	1025.8	774	0.000	3.1
20260430 13:30	13.5	13.5	13.5	29	-4.2	16	27	68	0.0	1026.0	772	0.000	3.1
20260430 13:35	13.6	13.6	13.6	29	-4.1	13	26	45	0.0	1025.8	770	0.000	3.1
20260430 13:40	13.9	13.9	13.9	26	-5.3	18	29	68	0.0	1025.7	768	0.000	3.0
20260430 13:45	13.8	13.8	13.8	25	-5.9	14	29	68	0.0	1025.8	767	0.000	3.0
20260430 13:50	14.1	14.1	14.1	26	-5.1	11	24	45	0.0	1025.7	765	0.000	3.0
20260430 13:55	14.3	14.3	14.3	25	-5.4	13	29	68	0.0	1025.8	763	0.000	3.0
20260430 14:00	14.3	14.3	14.3	26	-4.9	13	26	90	0.0	1025.8	761	0.508	3.0
20260430 14:05	14.2	14.2	14.2	26	-5.0	19	32	45	0.0	1025.9	756	0.000	2.9
20260430 14:10	14.3	14.3	14.3	26	-4.9	13	31	68	0.0	1026.0	752	0.000	2.9
20260430 14:15	14.6	14.6	14.6	25	-5.2	14	26	68	0.0	1025.8	750	0.000	2.9
20260430 14:20	14.7	14.7	14.7	25	-5.1	11	27	68	0.0	1025.8	745	0.000	2.8
20260430 14:25	15.1	15.1	15.1	24	-5.4	16	29	68	0.0	1025.8	742	0.000	2.8
20260430 14:30	14.7	14.7	14.7	23	-6.2	16	27	68	0.0	1025.6	738	0.000	2.8
20260430 14:35	14.3	14.3	14.3	24	-6.0	16	31	45	0.0	1025.8	731	0.000	2.7
20260430 14:40	14.4	14.4	14.4	26	-4.8	16	34	68	0.0	1025.7	726	0.000	2.7
20260430 14:45	14.7	14.7	14.7	24	-5.6	18	34	68	0.0	1025.5	719	0.000	2.6
20260430 14:50	14.6	14.6	14.6	25	-5.2	19	31	45	0.0	1025.7	712	0.000	2.5
20260430 14:55	14.8	14.8	14.8	24	-5.6	13	26	68	0.0	1025.6	708	0.000	2.5
20260430 15:00	14.9	14.9	14.9	25	-5.0	13	24	68	0.0	1025.5	701	0.508	2.4
20260430 15:05	14.7	14.7	14.7	23	-6.2	19	39	45	0.0	1025.8	694	0.000	2.4
20260430 15:10	14.6	14.6	14.6	25	-5.2	14	26	45	0.0	1025.7	687	0.000	2.3
20260430 15:15	14.9	14.9	14.9	25	-5.0	13	26	68	0.0	1025.6	678	0.000	2.3
20260430 15:20	15.2	15.2	15.2	24	-5.3	14	27	68	0.0	1025.6	670	0.000	2.2
20260430 15:25	15.1	15.1	15.1	23	-5.9	14	29	68	0.0	1025.6	663	0.000	2.2
20260430 15:30	15.5	15.5	15.5	25	-4.4	14	29	90	0.0	1025.4	654	0.000	2.1
20260430 15:35	15.6	15.6	15.6	25	-4.4	14	34	90	0.0	1025.3	646	0.000	2.1
20260430 15:40	15.7	15.7	15.7	24	-4.8	14	35	90	0.0	1025.4	638	0.000	2.0
20260430 15:45	15.7	15.7	15.7	23	-5.4	13	24	68	0.0	1025.4	629	0.000	2.0
20260430 15:50	15.2	15.2	15.2	23	-5.8	13	26	68	0.0	1025.6	621	0.000	1.9
20260430 15:55	15.2	15.2	15.2	24	-5.3	13	26	68	0.0	1025.4	611	0.000	1.8
20260430 16:00	15.2	15.2	15.2	25	-4.7	14	31	68	0.0	1025.3	599	0.483	1.8
20260430 16:05	15.2	15.2	15.2	23	-5.8	14	34	45	0.0	1025.4	588	0.000	1.7
20260430 16:10	14.9	14.9	14.9	24	-5.5	16	29	45	0.0	1025.4	578	0.000	1.6
20260430 16:15	15.3	15.3	15.3	24	-5.2	13	27	68	0.0	1025.4	568	0.000	1.6
20260430 16:20	15.7	15.7	15.7	23	-5.4	13	24	68	0.0	1025.3	559	0.000	1.5
20260430 16:25	15.8	15.8	15.8	25	-4.2	11	21	68	0.0	1025.2	549	0.000	1.5
20260430 16:30	15.4	15.4	15.4	25	-4.5	11	21	68	0.0	1025.1	536	0.000	1.4
20260430 16:35	15.7	15.7	15.7	23	-5.4	13	24	90	0.0	1025.1	526	0.000	1.3
20260430 16:40	16.1	16.1	16.1	24	-4.5	13	24	90	0.0	1025.1	513	0.000	1.3
20260430 16:45	16.1	16.1	16.1	25	-4.0	10	18	68	0.0	1025.1	502	0.000	1.2
20260430 16:50	15.7	15.7	15.7	25	-4.3	11	24	68	0.0	1025.1	489	0.000	1.2
20260430 16:55	15.7	15.7	15.7	26	-3.7	14	26	112	0.0	1025.1	478	0.000	1.1
20260430 17:00	15.7	15.7	15.7	27	-3.2	11	23	68	0.0	1025.1	465	0.406	1.1
20260430 17:05	15.9	15.9	15.9	26	-3.5	11	24	68	0.0	1025.3	452	0.000	1.0
20260430 17:10	16.0	16.0	16.0	23	-5.1	14	27	90	0.0	1025.2	441	0.000	1.0
20260430 17:15	16.0	16.0	16.0	24	-4.6	13	26	90	0.0	1025.1	428	0.000	0.9
20260430 17:20	16.2	16.2	16.2	25	-3.9	10	21	90	0.0	1025.1	415	0.000	0.9
20260430 17:25	16.2	16.2	16.2	25	-3.8	10	19	90	0.0	1025.1	404	0.000	0.8
20260430 17:30	16.0	16.0	16.0	27	-3.0	8	19	68	0.0	1025.1	390	0.000	0.8
20260430 17:35	15.6	15.6	15.6	26	-3.8	14	26	68	0.0	1025.2	378	0.000	0.7
20260430 17:40	15.3	15.3	15.3	26	-4.1	16	26	68	0.0	1025.2	364	0.000	0.7
20260430 17:45	15.5	15.5	15.5	27	-3.4	8	16	68	0.0	1025.0	352	0.000	0.6
20260430 17:50	15.4	15.4	15.4	28	-3.0	14	26	45	0.0	1025.0	337	0.000	0.6
20260430 17:55	15.3	15.3	15.3	29	-2.7	14	24	68	0.0	1025.1	325	0.000	0.5
20260430 18:00	15.3	15.3	15.3	28	-3.1	13	26	68	0.0	1025.1	312	0.330	0.5
20260430 18:05	15.2	15.2	15.2	28	-3.2	13	26	68	0.0	1025.1	300	0.000	0.5
20260430 18:10	14.9	14.9	14.9	28	-3.4	13	24	45	0.0	1025.0	287	0.000	0.3
20260430 18:15	15.1	15.1	15.1	27	-3.8	13	24	90	0.0	1025.1	275	0.000	0.0
20260430 18:20	15.2	15.2	15.2	28	-3.2	13	24	90	0.0	1025.2	263	0.000	0.0
20260430 18:25	15.3	15.3	15.3	28	-3.1	11	26	90	0.0	1025.2	251	0.000	0.0
20260430 18:30	15.1	15.1	15.1	29	-2.8	13	26	68	0.0	1025.2	237	0.000	0.0
20260430 18:35	15.1	15.1	15.1	29	-2.8	13	24	68	0.0	1025.3	226	0.000	0.0
20260430 18:40	14.8	14.8	14.8	29	-3.1	11	26	68	0.0	1025.3	212	0.000	0.0
20260430 18:45	14.6	14.6	14.6	29	-3.3	13	27	68	0.0	1025.4	198	0.000	0.0
20260430 18:50	14.4	14.4	14.4	28	-3.9	13	27	68	0.0	1025.3	184	0.000	0.0
20260430 18:55	14.4	14.4	14.4	29	-3.4	10	19	68	0.0	1025.3	170	0.000	0.0
20260430 19:00	14.3	14.3	14.3	29	-3.5	8	19	68	0.0	1025.3	155	0.229	0.0
20260430 19:05	14.2	14.2	14.2	29	-3.6	10	21	90	0.0	1025.0	132	0.000	0.0
20260430 19:10	14.0	14.0	14.0	29	-3.8	11	23	68	0.0	1025.2	40	0.000	0.0
20260430 19:15	13.8	13.8	13.8	30	-3.4	10	19	90	0.0	1025.2	35	0.000	0.0
20260430 19:20	13.6	13.6	13.6	30	-3.6	10	19	68	0.0	1025.2	33	0.000	0.0
20260430 19:25	13.4	13.4	13.4	31	-3.3	8	24	68	0.0	1025.2	33	0.000	0.0
20260430 19:30	13.3	13.3	13.3	31	-3.4	6	18	68	0.0	1025.1	32	0.000	0.0
20260430 19:35	13.2	13.2	13.2	31	-3.5	8	19	68	0.0	1025.1	29	0.000	0.0
20260430 19:40	13.1	13.1	13.1	31	-3.7	8	14	68	0.0	1025.2	26	0.000	0.0
20260430 19:45	12.9	12.9	12.9	32	-3.4	8	21	68	0.0	1025.3	24	0.000	0.0
20260430 19:50	12.8	12.8	12.8	32	-3.5	5	10	90	0.0	1025.3	19	0.000	0.0
20260430 19:55	12.7	12.7	12.7	32	-3.6	6	18	68	0.0	1025.3	18	0.000	0.0
20260430 20:00	12.6	12.6	12.6	33	-3.3	6	18	90	0.0	1025.4	16	0.102	0.0
20260430 20:05	12.3	12.3	12.3	33	-3.5	6	14	68	0.0	1025.2	13	0.000	0.0
20260430 20:10	12.2	12.2	12.2	34	-3.2	6	18	68	0.0	1025.2	11	0.000	0.0
20260430 20:15	12.1	12.1	12.1	34	-3.3	8	16	68	0.0	1025.2	7	0.000	0.0
20260430 20:20	11.9	11.9	11.9	34	-3.4	8	16	68	0.0	1025.3	5	0.000	0.0
20260430 20:25	11.8	11.8	11.8	35	-3.2	5	14	68	0.0	1025.5	0	0.000	0.0
20260430 20:30	11.6	11.6	11.6	35	-3.4	5	14	68	0.0	1025.5	0	0.000	0.0
20260430 20:35	11.4	11.4	11.4	36	-3.1	3	6	90	0.0	1025.5	0	0.000	0.0
20260430 20:40	11.3	11.3	11.3	36	-3.3	3	6	90	0.0	1025.6	0	0.000	0.0
20260430 20:45	11.1	11.1	11.1	37	-3.1	3	6	90	0.0	1025.6	0	0.000	0.0
20260430 20:50	10.9	10.9	10.9	37	-3.2	5	8	90	0.0	1025.7	0	0.000	0.0
20260430 20:55	10.8	10.8	10.8	37	-3.3	5	11	90	0.0	1025.7	0	0.000	0.0
20260430 21:00	10.7	10.7	10.7	37	-3.4	5	10	90	0.0	1025.9	0	0.051	0.0
20260430 21:05	10.7	10.7	10.7	38	-3.1	5	10	112	0.0	1025.9	0	0.000	0.0
20260430 21:10	10.6	10.6	10.6	38	-3.2	5	8	90	0.0	1025.9	0	0.000	0.0
20260430 21:15	10.4	10.4	10.4	38	-3.3	6	11	90	0.0	1025.9	0	0.000	0.0
20260430 21:20	10.3	10.3	10.3	39	-3.0	6	11	90	0.0	1025.9	0	0.000	0.0
20260430 21:25	10.3	10.3	10.3	39	-3.1	6	11	90	0.0	1025.9	0	0.000	0.0
20260430 21:30	10.3	10.3	10.3	39	-3.1	6	11	112	0.0	1025.9	0	0.000	0.0
20260430 21:35	10.2	10.2	10.2	40	-2.8	6	10	112	0.0	1026.0	0	0.000	0.0
20260430 21:40	10.1	10.1	10.1	40	-2.9	5	10	90	0.0	1026.1	0	0.000	0.0
20260430 21:45	10.0	10.0	10.0	41	-2.6	5	10	112	0.0	1026.1	0	0.000	0.0
20260430 21:50	9.8	9.2	9.8	41	-2.8	6	11	112	0.0	1026.2	0	0.000	0.0
20260430 21:55	9.8	9.8	9.8	41	-2.8	5	8	90	0.0	1026.2	0	0.000	0.0
20260430 22:00	9.7	9.7	9.7	42	-2.6	5	10	90	0.0	1026.2	0	0.076	0.0
20260430 22:05	9.5	9.5	9.5	43	-2.5	5	8	90	0.0	1026.3	0	0.000	0.0
20260430 22:10	9.4	8.7	9.4	43	-2.6	6	10	90	0.0	1026.3	0	0.000	0.0
20260430 22:15	9.3	9.3	9.3	43	-2.7	5	10	90	0.0	1026.3	0	0.000	0.0
20260430 22:20	9.2	8.4	9.2	44	-2.4	6	11	90	0.0	1026.3	0	0.000	0.0
20260430 22:25	9.2	8.4	9.2	44	-2.4	6	10	90	0.0	1026.2	0	0.000	0.0
20260430 22:30	9.1	9.1	9.1	44	-2.5	5	10	90	0.0	1026.3	0	0.000	0.0
20260430 22:35	9.0	9.0	9.0	44	-2.6	5	8	90	0.0	1026.3	0	0.000	0.0
20260430 22:40	8.9	8.9	8.9	44	-2.7	5	8	90	0.0	1026.3	0	0.000	0.0
20260430 22:45	8.8	8.8	8.8	45	-2.4	3	6	90	0.0	1026.2	0	0.000	0.0
20260430 22:50	8.7	8.7	8.7	45	-2.5	3	8	90	0.0	1026.2	0	0.000	0.0
20260430 22:55	8.6	8.6	8.6	45	-2.7	3	8	90	0.0	1026.2	0	0.000	0.0
20260430 23:00	8.5	8.5	8.5	45	-2.8	2	5	90	0.0	1026.3	0	0.051	0.0
20260430 23:05	8.3	8.3	8.3	46	-2.6	0	3	90	0.0	1026.0	0	0.000	0.0
20260430 23:10	8.2	8.2	8.2	46	-2.7	2	5	90	0.0	1026.1	0	0.000	0.0
20260430 23:15	8.1	8.1	8.1	47	-2.5	2	3	90	0.0	1026.1	0	0.000	0.0
20260430 23:20	8.0	8.0	8.0	47	-2.6	0	3	90	0.0	1026.1	0	0.000	0.0
20260430 23:25	7.8	7.8	7.8	48	-2.5	0	3	90	0.0	1026.1	0	0.000	0.0
20260430 23:30	7.6	7.6	7.6	48	-2.7	2	5	68	0.0	1026.1	0	0.000	0.0
20260430 23:35	7.5	7.5	7.5	49	-2.5	2	3	68	0.0	1026.2	0	0.000	0.0
20260430 23:40	7.3	7.3	7.3	49	-2.7	2	3	68	0.0	1026.3	0	0.000	0.0
20260430 23:45	7.2	7.2	7.2	50	-2.5	2	3	68	0.0	1026.3	0	0.000	0.0
20260430 23:50	7.1	7.1	7.1	50	-2.7	2	3	68	0.0	1026.3	0	0.000	0.0
20260430 23:55	6.9	6.9	6.9	50	-2.8	2	3	68	0.0	1026.4	0	0.000	0.0



Please note the license to use and transfer of this data:
https://creativecommons.org/licenses/by-nc-sa/3.0/deed.en

Bitte beachten sie die Lizenz zur Verwertung und Weitergabe der Daten:
https://creativecommons.org/licenses/by-nc-sa/3.0/deed.de

zurück zur Übersicht der Archivdaten (Monats und Tagesdaten)

Cookies helfen bei der Bereitstellung von Inhalten. Diese Website verwendet Cookies. Mit der Nutzung der Website erklären Sie sich damit einverstanden, dass Cookies auf Ihrem Computer gespeichert werden. Außerdem bestätigen Sie, dass Sie unsere Datenschutzerklärung gelesen und verstanden haben. Wenn Sie nicht einverstanden sind, verlassen Sie die Website.Weitere Information